createdAt,value
2018-12-12T00:00:35.101Z,98745.80
2018-12-12T00:02:42.325Z,98742.31
2018-12-12T00:04:49.270Z,98738.77
2018-12-12T00:06:57.291Z,98733.52
2018-12-12T00:09:04.630Z,98725.39
2018-12-12T00:11:12.585Z,98720.20
2018-12-12T00:13:22.836Z,98695.44
2018-12-12T00:15:32.173Z,98688.95
2018-12-12T00:17:39.743Z,98692.02
2018-12-12T00:19:47.250Z,98701.12
2018-12-12T00:21:54.223Z,98689.77
2018-12-12T00:24:01.065Z,98696.02
2018-12-12T00:26:07.822Z,98700.97
2018-12-12T00:28:15.159Z,98701.23
2018-12-12T00:30:22.474Z,98704.27
2018-12-12T00:32:29.660Z,98712.28
2018-12-12T00:34:36.522Z,98719.61
2018-12-12T00:36:44.070Z,98721.42
2018-12-12T00:38:51.095Z,98710.58
2018-12-12T00:40:58.420Z,98708.74
2018-12-12T00:43:05.188Z,98710.92
2018-12-12T00:45:13.757Z,98717.34
2018-12-12T00:47:20.897Z,98722.06
2018-12-12T00:49:28.288Z,98721.41
2018-12-12T00:51:35.437Z,98725.83
2018-12-12T00:53:43.951Z,98726.06
2018-12-12T00:55:51.177Z,98714.30
2018-12-12T00:57:58.290Z,98709.44
2018-12-12T01:00:09.366Z,98712.48
2018-12-12T01:02:16.258Z,98705.16
2018-12-12T01:04:23.595Z,98718.92
2018-12-12T01:06:31.944Z,98713.96
2018-12-12T01:08:39.022Z,98708.80
2018-12-12T01:10:47.302Z,98706.28
2018-12-12T01:12:55.103Z,98711.00
2018-12-12T01:19:40.255Z,98718.74
2018-12-12T01:26:16.864Z,98719.25
2018-12-12T01:30:45.909Z,98714.42
2018-12-12T01:37:41.792Z,98712.84
2018-12-12T01:39:57.446Z,98714.27
2018-12-12T01:42:12.414Z,98710.44
2018-12-12T01:51:46.758Z,98712.37
2018-12-12T02:21:02.476Z,98741.91
2018-12-12T03:03:28.700Z,98683.20
2018-12-12T03:15:33.921Z,98663.36
2018-12-12T03:24:18.717Z,98658.02
2018-12-12T03:31:06.163Z,98639.29
2018-12-12T03:37:40.889Z,98631.30
2018-12-12T03:44:18.783Z,98616.45
2018-12-12T03:55:22.701Z,98610.29
2018-12-12T03:59:44.878Z,98597.56
2018-12-12T04:01:53.514Z,98593.63
2018-12-12T04:04:00.288Z,98590.92
2018-12-12T04:06:07.274Z,98581.84
2018-12-12T04:08:14.340Z,98576.91
2018-12-12T04:10:21.421Z,98576.39
2018-12-12T04:12:28.839Z,98574.51
2018-12-12T04:14:35.786Z,98566.48
2018-12-12T04:16:42.930Z,98567.34
2018-12-12T04:18:49.837Z,98571.25
2018-12-12T04:20:57.050Z,98575.54
2018-12-12T04:23:04.754Z,98572.53
2018-12-12T04:25:12.121Z,98567.43
2018-12-12T04:27:19.039Z,98567.05
2018-12-12T04:29:26.685Z,98566.25
2018-12-12T04:31:33.928Z,98562.22
2018-12-12T04:33:41.272Z,98564.40
2018-12-12T04:35:48.526Z,98567.17
2018-12-12T04:37:55.397Z,98560.55
2018-12-12T04:40:02.119Z,98552.48
2018-12-12T04:42:09.434Z,98561.94
2018-12-12T04:44:16.170Z,98551.66
2018-12-12T04:46:22.976Z,98548.55
2018-12-12T04:48:29.856Z,98547.36
2018-12-12T04:50:37.073Z,98545.42
2018-12-12T04:52:44.118Z,98537.78
2018-12-12T04:54:50.902Z,98534.38
2018-12-12T04:56:58.117Z,98520.95
2018-12-12T04:59:05.219Z,98512.67
2018-12-12T05:01:12.042Z,98512.84
2018-12-12T05:03:19.924Z,98512.02
2018-12-12T05:05:26.760Z,98514.63
2018-12-12T05:07:33.730Z,98510.14
2018-12-12T05:09:40.450Z,98503.22
2018-12-12T05:11:47.221Z,98499.75
2018-12-12T05:13:53.981Z,98494.13
2018-12-12T05:16:00.984Z,98482.09
2018-12-12T05:18:07.706Z,98480.22
2018-12-12T05:20:14.646Z,98467.08
2018-12-12T05:22:21.917Z,98475.09
2018-12-12T05:24:28.863Z,98471.50
2018-12-12T05:26:35.933Z,98464.91
2018-12-12T05:28:42.716Z,98467.80
2018-12-12T05:30:49.146Z,98460.08
2018-12-12T05:32:56.106Z,98449.56
2018-12-12T05:35:02.912Z,98448.87
2018-12-12T05:37:09.944Z,98442.04
2018-12-12T05:39:17.616Z,98452.09
2018-12-12T05:41:24.721Z,98453.55
2018-12-12T05:43:31.277Z,98449.39
2018-12-12T05:45:38.576Z,98448.95
2018-12-12T05:47:45.407Z,98450.07
2018-12-12T05:49:52.072Z,98443.02
2018-12-12T05:51:58.837Z,98443.78
2018-12-12T05:54:06.195Z,98444.69
2018-12-12T05:56:14.295Z,98437.11
2018-12-12T05:58:21.170Z,98431.30
2018-12-12T06:00:28.199Z,98424.40
2018-12-12T06:02:35.144Z,98424.00
2018-12-12T06:04:42.041Z,98425.36
2018-12-12T06:06:48.895Z,98421.10
2018-12-12T06:08:55.683Z,98416.22
2018-12-12T06:11:02.369Z,98422.13
2018-12-12T06:13:09.318Z,98426.52
2018-12-12T06:15:16.172Z,98409.47
2018-12-12T06:17:22.789Z,98407.66
2018-12-12T06:19:30.080Z,98400.01
2018-12-12T06:21:36.900Z,98399.31
2018-12-12T06:23:43.926Z,98388.14
2018-12-12T06:25:50.709Z,98391.97
2018-12-12T06:27:57.469Z,98384.61
2018-12-12T06:30:04.877Z,98379.44
2018-12-12T06:32:11.637Z,98367.56
2018-12-12T06:34:18.282Z,98362.69
2018-12-12T06:36:25.197Z,98363.91
2018-12-12T06:38:32.299Z,98351.05
2018-12-12T06:40:39.328Z,98350.72
2018-12-12T06:42:45.995Z,98344.66
2018-12-12T06:44:53.131Z,98340.59
2018-12-12T06:47:00.666Z,98331.88
2018-12-12T06:49:07.647Z,98326.12
2018-12-12T06:51:14.270Z,98323.55
2018-12-12T06:53:20.820Z,98312.70
2018-12-12T06:55:27.693Z,98311.95
2018-12-12T06:57:34.787Z,98300.02
2018-12-12T06:59:41.833Z,98302.28
2018-12-12T07:01:48.846Z,98295.87
2018-12-12T07:03:55.801Z,98288.37
2018-12-12T07:06:02.450Z,98289.21
2018-12-12T07:08:09.366Z,98288.09
2018-12-12T07:10:16.444Z,98294.56
2018-12-12T07:12:23.469Z,98293.52
2018-12-12T07:14:30.445Z,98291.25
2018-12-12T07:16:37.418Z,98288.95
2018-12-12T07:18:44.788Z,98295.84
2018-12-12T07:20:51.514Z,98285.55
2018-12-12T07:22:58.333Z,98281.67
2018-12-12T07:25:05.358Z,98277.95
2018-12-12T07:27:12.157Z,98278.25
2018-12-12T07:29:19.110Z,98280.59
2018-12-12T07:31:25.786Z,98273.60
2018-12-12T07:33:32.889Z,98277.16
2018-12-12T07:35:39.713Z,98258.28
2018-12-12T07:37:46.760Z,98262.62
2018-12-12T07:39:54.459Z,98253.83
2018-12-12T07:42:02.282Z,98253.03
2018-12-12T07:44:09.125Z,98252.83
2018-12-12T07:46:16.294Z,98255.09
2018-12-12T07:48:23.274Z,98242.92
2018-12-12T07:50:30.741Z,98240.69
2018-12-12T07:52:37.538Z,98245.36
2018-12-12T07:54:44.226Z,98236.22
2018-12-12T07:56:51.421Z,98230.38
2018-12-12T07:58:58.294Z,98227.02
2018-12-12T08:01:05.346Z,98229.58
2018-12-12T08:03:12.094Z,98222.11
2018-12-12T08:05:19.005Z,98210.37
2018-12-12T08:07:25.886Z,98217.55
2018-12-12T08:09:33.013Z,98212.88
2018-12-12T08:11:40.035Z,98209.29
2018-12-12T08:13:46.758Z,98201.24
2018-12-12T08:15:53.617Z,98196.53
2018-12-12T08:18:00.462Z,98195.83
2018-12-12T08:20:07.485Z,98187.72
2018-12-12T08:22:14.135Z,98179.25
2018-12-12T08:24:21.157Z,98169.50
2018-12-12T08:26:28.322Z,98161.48
2018-12-12T08:28:35.079Z,98151.49
2018-12-12T08:30:41.853Z,98152.94
2018-12-12T08:32:48.582Z,98156.34
2018-12-12T08:34:55.263Z,98140.95
2018-12-12T08:37:02.705Z,98137.30
2018-12-12T08:39:10.290Z,98134.51
2018-12-12T08:41:16.914Z,98123.75
2018-12-12T08:43:23.625Z,98118.59
2018-12-12T08:45:30.629Z,98129.12
2018-12-12T08:47:38.063Z,98122.20
2018-12-12T08:49:44.898Z,98113.84
2018-12-12T08:51:51.847Z,98113.13
2018-12-12T08:53:58.711Z,98102.26
2018-12-12T08:56:06.078Z,98088.73
2018-12-12T08:58:12.889Z,98090.67
2018-12-12T09:00:19.867Z,98089.71
2018-12-12T09:02:26.686Z,98075.77
2018-12-12T09:04:33.457Z,98054.27
2018-12-12T09:06:40.690Z,98035.16
2018-12-12T09:08:48.227Z,98025.05
2018-12-12T09:10:55.009Z,98059.67
2018-12-12T09:13:01.727Z,98029.03
2018-12-12T09:15:08.930Z,98034.53
2018-12-12T09:17:15.860Z,98032.73
2018-12-12T09:19:22.886Z,98030.27
2018-12-12T09:21:30.424Z,98029.45
2018-12-12T09:23:38.322Z,98024.73
2018-12-12T09:25:45.192Z,98010.99
2018-12-12T09:27:52.002Z,98019.20
2018-12-12T09:29:59.106Z,98007.22
2018-12-12T09:32:05.850Z,98005.42
2018-12-12T09:34:12.745Z,97998.83
2018-12-12T09:36:19.961Z,97986.73
2018-12-12T09:38:27.121Z,97989.87
2018-12-12T09:40:34.081Z,97991.72
2018-12-12T09:42:40.615Z,97979.35
2018-12-12T09:44:47.622Z,97969.14
2018-12-12T09:46:54.854Z,97991.47
2018-12-12T09:49:01.762Z,97975.20
2018-12-12T09:51:08.631Z,97965.22
2018-12-12T09:53:15.661Z,97953.39
2018-12-12T09:55:22.390Z,97948.88
2018-12-12T09:57:29.280Z,97941.20
2018-12-12T09:59:36.011Z,97924.37
2018-12-12T10:01:42.838Z,97921.38
2018-12-12T10:03:53.174Z,97930.53
2018-12-12T10:06:00.230Z,97932.71
2018-12-12T10:08:07.062Z,97925.23
2018-12-12T10:10:14.080Z,97921.41
2018-12-12T10:12:21.087Z,97917.17
2018-12-12T10:14:27.678Z,97921.95
2018-12-12T10:16:34.502Z,97918.70
2018-12-12T10:18:41.491Z,97914.19
2018-12-12T10:20:48.375Z,97908.81
2018-12-12T10:22:55.226Z,97912.45
2018-12-12T10:25:02.139Z,97915.02
2018-12-12T10:27:09.602Z,97910.64
2018-12-12T10:29:17.033Z,97897.46
2018-12-12T10:31:24.338Z,97907.72
2018-12-12T10:33:37.439Z,97920.58
2018-12-12T10:35:40.493Z,97928.63
2018-12-12T10:37:47.510Z,97915.23
2018-12-12T10:39:54.296Z,97930.50
2018-12-12T10:42:01.045Z,97920.21
2018-12-12T10:44:07.966Z,97916.00
2018-12-12T10:46:14.735Z,97920.52
2018-12-12T10:48:22.697Z,97910.89
2018-12-12T10:50:29.861Z,97915.97
2018-12-12T10:52:37.160Z,97915.53
2018-12-12T10:54:43.973Z,97916.77
2018-12-12T10:56:50.730Z,97912.70
2018-12-12T10:58:57.649Z,97903.16
2018-12-12T11:01:08.806Z,97890.83
2018-12-12T11:03:52.656Z,97890.95
2018-12-12T11:05:59.375Z,97880.67
2018-12-12T11:08:06.410Z,97888.11
2018-12-12T11:10:13.182Z,97882.87
2018-12-12T11:12:20.124Z,97883.73
2018-12-12T11:14:26.870Z,97881.48
2018-12-12T11:16:33.812Z,97885.13
2018-12-12T11:18:40.623Z,97879.76
2018-12-12T11:20:47.325Z,97875.78
2018-12-12T11:22:54.877Z,97875.17
2018-12-12T11:25:01.929Z,97880.25
2018-12-12T11:27:08.626Z,97870.74
2018-12-12T11:29:15.326Z,97872.36
2018-12-12T11:31:22.162Z,97876.33
2018-12-12T11:33:28.874Z,97874.34
2018-12-12T11:35:35.927Z,97872.42
2018-12-12T11:37:43.474Z,97871.49
2018-12-12T11:39:50.289Z,97867.86
2018-12-12T11:41:57.158Z,97866.07
2018-12-12T11:44:03.849Z,97867.59
2018-12-12T11:46:11.149Z,97872.00
2018-12-12T11:48:17.982Z,97863.08
2018-12-12T11:50:25.039Z,97860.02
2018-12-12T11:52:31.757Z,97859.09
2018-12-12T11:54:38.742Z,97856.00
2018-12-12T11:56:45.634Z,97858.06
2018-12-12T11:58:52.669Z,97853.12
2018-12-12T12:01:00.123Z,97853.33
2018-12-12T12:03:06.377Z,97844.25
2018-12-12T12:05:13.318Z,97852.05
2018-12-12T12:07:20.225Z,97848.62
2018-12-12T12:09:27.270Z,97847.05
2018-12-12T12:11:33.940Z,97839.50
2018-12-12T12:13:40.586Z,97836.44
2018-12-12T12:15:47.454Z,97839.67
2018-12-12T12:17:54.371Z,97837.06
2018-12-12T12:20:01.138Z,97834.97
2018-12-12T12:22:07.906Z,97830.52
2018-12-12T12:24:14.610Z,97836.41
2018-12-12T12:26:21.971Z,97830.52
2018-12-12T12:28:28.917Z,97824.86
2018-12-12T12:30:35.895Z,97789.75
2018-12-12T12:32:42.737Z,97813.87
2018-12-12T12:34:49.791Z,97804.69
2018-12-12T12:36:57.694Z,97812.20
2018-12-12T12:39:05.918Z,97811.66
2018-12-12T12:41:13.481Z,97803.70
2018-12-12T12:43:20.436Z,97800.33
2018-12-12T12:45:29.179Z,97802.84
2018-12-12T12:47:36.152Z,97807.59
2018-12-12T12:49:43.053Z,97809.92
2018-12-12T12:51:49.775Z,97804.71
2018-12-12T12:53:57.327Z,97812.45
2018-12-12T12:56:04.272Z,97801.91
2018-12-12T12:58:11.070Z,97805.80
2018-12-12T13:00:17.833Z,97804.78
2018-12-12T13:02:25.390Z,97806.58
2018-12-12T13:04:32.579Z,97803.08
2018-12-12T13:06:39.341Z,97804.59
2018-12-12T13:08:46.276Z,97798.44
2018-12-12T13:10:53.101Z,97796.66
2018-12-12T13:13:00.334Z,97795.98
2018-12-12T13:15:07.666Z,97790.08
2018-12-12T13:17:15.103Z,97789.64
2018-12-12T13:19:21.953Z,97785.97
2018-12-12T13:21:28.693Z,97785.14
2018-12-12T13:23:35.630Z,97769.66
2018-12-12T13:25:42.966Z,97771.47
2018-12-12T13:27:49.903Z,97768.22
2018-12-12T13:29:57.480Z,97766.27
2018-12-12T13:32:04.341Z,97773.42
2018-12-12T13:34:16.231Z,97776.55
2018-12-12T13:36:20.270Z,97766.96
2018-12-12T13:38:27.286Z,97764.95
2018-12-12T13:40:33.942Z,97769.75
2018-12-12T13:42:41.002Z,97771.56
2018-12-12T13:44:47.826Z,97762.23
2018-12-12T13:46:54.705Z,97760.23
2018-12-12T13:49:01.673Z,97762.63
2018-12-12T13:51:08.619Z,97760.34
2018-12-12T13:53:15.601Z,97761.98
2018-12-12T13:55:22.476Z,97766.24
2018-12-12T13:57:29.146Z,97762.74
2018-12-12T13:59:36.201Z,97759.08
2018-12-12T14:01:43.185Z,97763.16
2018-12-12T14:03:50.029Z,97771.77
2018-12-12T14:05:56.994Z,97754.04
2018-12-12T14:08:03.727Z,97756.24
2018-12-12T14:10:10.341Z,97754.00
2018-12-12T14:12:17.658Z,97739.46
2018-12-12T14:14:24.287Z,97741.55
2018-12-12T14:16:31.084Z,97739.46
2018-12-12T14:18:37.964Z,97740.09
2018-12-12T14:20:44.707Z,97743.16
2018-12-12T14:22:51.553Z,97736.36
2018-12-12T14:24:58.493Z,97739.61
2018-12-12T14:27:05.261Z,97739.47
2018-12-12T14:29:12.401Z,97740.73
2018-12-12T14:31:19.078Z,97741.16
2018-12-12T14:33:25.925Z,97745.95
2018-12-12T14:35:32.783Z,97753.77
2018-12-12T14:37:39.496Z,97747.88
2018-12-12T14:39:46.452Z,97751.86
2018-12-12T14:41:53.654Z,97751.55
2018-12-12T14:44:00.375Z,97748.20
2018-12-12T14:46:07.283Z,97735.34
2018-12-12T14:48:14.499Z,97736.12
2018-12-12T14:50:21.435Z,97720.55
2018-12-12T14:52:28.224Z,97724.90
2018-12-12T14:54:35.260Z,97720.81
2018-12-12T14:56:42.604Z,97717.20
2018-12-12T14:58:49.671Z,97714.20
2018-12-12T15:00:56.490Z,97724.63
2018-12-12T15:03:03.659Z,97723.20
2018-12-12T15:05:10.543Z,97717.23
2018-12-12T15:07:17.554Z,97724.09
2018-12-12T15:09:24.514Z,97720.52
2018-12-12T15:11:31.394Z,97723.66
2018-12-12T15:13:38.193Z,97726.19
2018-12-12T15:15:44.871Z,97721.56
2018-12-12T15:17:51.754Z,97725.83
2018-12-12T15:19:58.610Z,97726.95
2018-12-12T15:22:05.525Z,97723.09
2018-12-12T15:24:12.182Z,97690.61
2018-12-12T15:26:19.038Z,97715.81
2018-12-12T15:28:26.142Z,97720.05
2018-12-12T15:30:33.445Z,97724.11
2018-12-12T15:32:40.516Z,97714.13
2018-12-12T15:34:47.447Z,97700.84
2018-12-12T15:36:54.102Z,97709.16
2018-12-12T15:39:00.887Z,97724.06
2018-12-12T15:41:07.732Z,97729.17
2018-12-12T15:43:14.630Z,97731.31
2018-12-12T15:45:21.505Z,97732.07
2018-12-12T15:47:28.406Z,97732.67
2018-12-12T15:49:35.255Z,97729.56
2018-12-12T15:51:42.055Z,97728.52
2018-12-12T15:53:48.861Z,97718.61
2018-12-12T15:55:55.544Z,97715.45
2018-12-12T15:59:06.779Z,97715.66
2018-12-12T16:01:13.768Z,97718.61
2018-12-12T16:03:20.750Z,97724.29
2018-12-12T16:05:27.863Z,97716.16
2018-12-12T16:07:34.685Z,97719.69
2018-12-12T16:09:42.522Z,97720.48
2018-12-12T16:11:49.386Z,97720.76
2018-12-12T16:13:56.167Z,97731.06
2018-12-12T16:16:03.861Z,97721.58
2018-12-12T16:18:10.628Z,97723.23
2018-12-12T16:20:17.345Z,97723.52
2018-12-12T16:22:24.331Z,97736.50
2018-12-12T16:24:31.131Z,97735.15
2018-12-12T16:26:37.789Z,97733.23
2018-12-12T16:28:45.147Z,97731.85
2018-12-12T16:30:51.767Z,97725.89
2018-12-12T16:33:00.154Z,97727.20
2018-12-12T16:35:07.606Z,97735.03
2018-12-12T16:37:15.009Z,97729.53
2018-12-12T16:39:22.126Z,97738.45
2018-12-12T16:41:29.038Z,97738.52
2018-12-12T16:43:35.827Z,97735.00
2018-12-12T16:45:42.694Z,97725.50
2018-12-12T16:47:49.573Z,97735.80
2018-12-12T16:49:57.181Z,97734.80
2018-12-12T16:52:04.154Z,97724.48
2018-12-12T16:54:11.042Z,97727.41
2018-12-12T16:56:18.050Z,97716.21
2018-12-12T16:58:25.849Z,97720.95
2018-12-12T17:00:33.179Z,97732.13
2018-12-12T17:02:39.869Z,97733.55
2018-12-12T17:04:46.747Z,97726.42
2018-12-12T17:06:53.354Z,97729.69
2018-12-12T17:09:00.259Z,97730.31
2018-12-12T17:11:07.835Z,97730.91
2018-12-12T17:13:15.250Z,97725.91
2018-12-12T17:15:22.119Z,97732.78
2018-12-12T17:17:28.729Z,97722.44
2018-12-12T17:19:35.495Z,97718.74
2018-12-12T17:21:42.805Z,97721.39
2018-12-12T17:23:49.447Z,97724.88
2018-12-12T17:25:56.353Z,97723.17
2018-12-12T17:28:03.221Z,97718.48
2018-12-12T17:30:10.511Z,97715.69
2018-12-12T17:32:17.223Z,97706.44
2018-12-12T17:34:24.939Z,97711.56
2018-12-12T17:36:32.073Z,97711.45
2018-12-12T17:38:39.025Z,97710.08
2018-12-12T17:40:45.835Z,97702.67
2018-12-12T17:42:52.691Z,97705.91
2018-12-12T17:44:59.527Z,97707.80
2018-12-12T17:47:06.458Z,97709.64
2018-12-12T17:49:13.478Z,97709.59
2018-12-12T17:51:20.286Z,97709.26
2018-12-12T17:53:27.213Z,97706.55
2018-12-12T17:55:33.989Z,97714.66
2018-12-12T17:57:41.081Z,97706.25
2018-12-12T17:59:47.858Z,97706.17
2018-12-12T18:01:54.860Z,97716.50
2018-12-12T18:04:01.712Z,97724.58
2018-12-12T18:06:08.400Z,97719.41
2018-12-12T18:08:15.092Z,97736.23
2018-12-12T18:10:21.957Z,97734.77
2018-12-12T18:12:29.056Z,97728.84
2018-12-12T18:14:35.813Z,97743.27
2018-12-12T18:16:42.945Z,97731.48
2018-12-12T18:18:49.806Z,97729.27
2018-12-12T18:20:56.699Z,97729.62
2018-12-12T18:23:03.711Z,97739.09
2018-12-12T18:25:10.521Z,97735.74
2018-12-12T18:27:17.287Z,97742.02
2018-12-12T18:29:25.030Z,97742.82
2018-12-12T18:31:31.833Z,97744.37
2018-12-12T18:33:39.070Z,97747.55
2018-12-12T18:35:45.795Z,97760.45
2018-12-12T18:37:52.838Z,97765.99
2018-12-12T18:39:59.674Z,97770.99
2018-12-12T18:42:06.385Z,97765.81
2018-12-12T18:44:13.093Z,97766.86
2018-12-12T18:46:20.501Z,97770.88
2018-12-12T18:48:27.373Z,97767.80
2018-12-12T18:50:35.089Z,97759.03
2018-12-12T18:52:41.773Z,97752.39
2018-12-12T18:54:48.985Z,97768.42
2018-12-12T18:56:56.610Z,97769.97
2018-12-12T18:59:03.361Z,97768.78
2018-12-12T19:01:10.312Z,97772.30
2018-12-12T19:03:17.065Z,97775.77
2018-12-12T19:05:28.279Z,97782.55
2018-12-12T19:07:33.041Z,97778.35
2018-12-12T19:09:39.832Z,97794.66
2018-12-12T19:11:47.083Z,97784.63
2018-12-12T19:13:53.950Z,97785.40
2018-12-12T19:16:00.610Z,97783.68
2018-12-12T19:18:07.494Z,97798.44
2018-12-12T19:20:14.058Z,97793.56
2018-12-12T19:22:20.706Z,97790.56
2018-12-12T19:24:27.606Z,97795.11
2018-12-12T19:26:34.510Z,97789.13
2018-12-12T19:28:41.395Z,97794.75
2018-12-12T19:30:48.463Z,97799.34
2018-12-12T19:32:55.870Z,97807.91
2018-12-12T19:35:02.690Z,97809.69
2018-12-12T19:37:09.434Z,97807.98
2018-12-12T19:39:16.298Z,97827.76
2018-12-12T19:41:23.412Z,97823.92
2018-12-12T19:43:30.301Z,97835.48
2018-12-12T19:45:37.042Z,97776.25
2018-12-12T19:47:43.888Z,97830.32
2018-12-12T19:49:50.941Z,97844.30
2018-12-12T19:51:57.633Z,97838.91
2018-12-12T19:54:04.333Z,97843.25
2018-12-12T19:56:11.300Z,97841.85
2018-12-12T19:58:18.309Z,97841.57
2018-12-12T20:00:25.067Z,97834.69
2018-12-12T20:02:31.758Z,97843.41
2018-12-12T20:04:38.754Z,97849.95
2018-12-12T20:06:45.517Z,97846.70
2018-12-12T20:08:52.514Z,97849.42
2018-12-12T20:10:59.524Z,97857.72
2018-12-12T20:13:06.028Z,97854.73
2018-12-12T20:15:16.578Z,97861.42
2018-12-12T20:17:23.364Z,97858.17
2018-12-12T20:19:30.189Z,97878.22
2018-12-12T20:21:36.873Z,97881.72
2018-12-12T20:23:43.581Z,97881.70
2018-12-12T20:25:50.635Z,97897.86
2018-12-12T20:27:57.433Z,97901.05
2018-12-12T20:30:04.285Z,97904.45
2018-12-12T20:32:11.125Z,97918.34
2018-12-12T20:34:18.062Z,97912.51
2018-12-12T20:36:24.656Z,97910.63
2018-12-12T20:38:31.267Z,97915.95
2018-12-12T20:40:38.234Z,97921.84
2018-12-12T20:42:44.951Z,97922.53
2018-12-12T20:44:51.784Z,97930.05
2018-12-12T20:46:58.379Z,97919.88
2018-12-12T20:49:06.330Z,97929.13
2018-12-12T20:51:13.264Z,97930.97
2018-12-12T20:53:19.902Z,97924.62
2018-12-12T20:55:26.936Z,97938.66
2018-12-12T20:57:34.403Z,97947.31
2018-12-12T20:59:41.247Z,97946.70
2018-12-12T21:01:48.265Z,97961.55
2018-12-12T21:03:55.225Z,97961.05
2018-12-12T21:06:03.086Z,97967.66
2018-12-12T21:08:10.117Z,97975.95
2018-12-12T21:10:17.004Z,97980.38
2018-12-12T21:12:23.929Z,97982.45
2018-12-12T21:14:30.910Z,97981.35
2018-12-12T21:16:37.863Z,97995.16
2018-12-12T21:18:44.711Z,97984.84
2018-12-12T21:20:51.486Z,97986.90
2018-12-12T21:22:58.145Z,97998.81
2018-12-12T21:25:04.991Z,98017.75
2018-12-12T21:27:12.147Z,98014.12
2018-12-12T21:29:19.072Z,98018.72
2018-12-12T21:31:25.698Z,98021.01
2018-12-12T21:33:32.386Z,98026.46
2018-12-12T21:35:39.173Z,98026.17
2018-12-12T21:37:45.911Z,98015.27
2018-12-12T21:39:52.629Z,98014.23
2018-12-12T21:41:59.885Z,98008.95
2018-12-12T21:44:06.835Z,98014.88
2018-12-12T21:46:13.994Z,98030.84
2018-12-12T21:48:20.975Z,98026.70
2018-12-12T21:50:27.762Z,98036.64
2018-12-12T21:52:34.505Z,98039.27
2018-12-12T21:54:41.252Z,98039.30
2018-12-12T21:56:48.486Z,98051.16
2018-12-12T21:58:55.141Z,98048.59
2018-12-12T22:01:02.402Z,98057.41
2018-12-12T22:03:09.307Z,98063.58
2018-12-12T22:05:16.488Z,98071.20
2018-12-12T22:07:23.368Z,98066.37
2018-12-12T22:09:30.547Z,98068.77
2018-12-12T22:11:37.409Z,98073.89
2018-12-12T22:13:44.277Z,98075.08
2018-12-12T22:15:51.021Z,98077.10
2018-12-12T22:17:57.937Z,98082.69
2018-12-12T22:20:04.915Z,98082.65
2018-12-12T22:22:11.848Z,98090.20
2018-12-12T22:24:18.663Z,98097.66
2018-12-12T22:26:25.564Z,98089.42
2018-12-12T22:28:32.437Z,98093.49
2018-12-12T22:30:39.339Z,98103.87
2018-12-12T22:32:45.947Z,98097.95
2018-12-12T22:34:52.596Z,98109.49
2018-12-12T22:36:59.364Z,98102.50
2018-12-12T22:39:08.108Z,98107.23
2018-12-12T22:41:15.375Z,98109.54
2018-12-12T22:43:22.070Z,98106.60
2018-12-12T22:45:28.885Z,98111.70
2018-12-12T22:47:35.610Z,98117.70
2018-12-12T22:49:42.630Z,98117.45
2018-12-12T22:51:49.440Z,98128.02
2018-12-12T22:53:56.373Z,98126.48
2018-12-12T22:56:03.366Z,98133.92
2018-12-12T22:58:10.181Z,98129.73
2018-12-12T23:00:22.566Z,98137.83
2018-12-12T23:02:29.308Z,98137.91
2018-12-12T23:04:36.071Z,98139.66
2018-12-12T23:06:43.102Z,98151.33
2018-12-12T23:08:50.022Z,98149.61
2018-12-12T23:10:57.270Z,98150.71
2018-12-12T23:13:03.896Z,98151.89
2018-12-12T23:15:11.362Z,98153.27
2018-12-12T23:17:18.457Z,98154.34
2018-12-12T23:19:25.273Z,98158.63
2018-12-12T23:21:32.345Z,98161.54
2018-12-12T23:23:39.033Z,98166.30
2018-12-12T23:25:45.726Z,98171.23
2018-12-12T23:27:52.852Z,98166.54
2018-12-12T23:29:59.532Z,98170.61
2018-12-12T23:32:07.062Z,98179.77
2018-12-12T23:34:13.924Z,98184.89
2018-12-12T23:36:26.797Z,98178.49
2018-12-12T23:38:30.229Z,98190.20
2018-12-12T23:40:36.945Z,98188.83
2018-12-12T23:42:44.038Z,98192.93
2018-12-12T23:44:51.606Z,98201.31
2018-12-12T23:46:58.651Z,98209.44
2018-12-12T23:49:05.455Z,98207.45
2018-12-12T23:51:12.462Z,98205.22
2018-12-12T23:53:19.612Z,98213.05
2018-12-12T23:55:26.746Z,98214.50
2018-12-12T23:57:33.313Z,98212.35
2018-12-12T23:59:40.042Z,98228.22
